Time;durP1;ratioP1;P1;durP2;ratioP2;P2;SDS_P1;SDS_P2;PMS_P1;PMS_P2;Temp;Humidity;BMP_temperature;BMP_pressure;BME280_temperature;BME280_humidity;BME280_pressure;Samples;Min_cycle;Max_cycle;Signal;HPM_P1;HPM_P2
2022/11/16 00:02:13;;;;;;;16.60;3.75;;;;;;;12.42;100.00;98270.22;5100108;28;20465;-81
2022/11/16 00:04:40;;;;;;;9.80;3.22;;;;;;;12.42;100.00;98272.84;5076278;28;20051;-81
2022/11/16 00:07:08;;;;;;;17.98;4.07;;;;;;;12.41;100.00;98286.94;5086507;28;20448;-82
2022/11/16 00:09:35;;;;;;;20.65;4.03;;;;;;;12.19;100.00;98284.44;5068475;28;20040;-81
2022/11/16 00:12:05;;;;;;;18.42;3.97;;;;;;;12.22;100.00;98306.00;5064008;28;20055;-81
2022/11/16 00:14:34;;;;;;;13.38;3.58;;;;;;;12.35;100.00;98309.25;5070818;28;20055;-82
2022/11/16 00:17:02;;;;;;;20.88;5.03;;;;;;;12.15;100.00;98268.13;5067240;28;20659;-82
2022/11/16 00:19:28;;;;;;;15.48;4.30;;;;;;;12.38;100.00;98283.69;5102816;28;20040;-82
2022/11/16 00:21:55;;;;;;;17.40;3.67;;;;;;;12.43;100.00;98307.78;5080535;28;20052;-82
2022/11/16 00:24:22;;;;;;;12.63;3.58;;;;;;;12.27;100.00;98300.34;5085474;28;20053;-82
2022/11/16 00:26:52;;;;;;;18.13;3.28;;;;;;;12.25;100.00;98297.03;5099407;28;20485;-82
2022/11/16 00:29:25;;;;;;;24.73;4.53;;;;;;;12.21;100.00;98296.44;5089282;28;20063;-82
2022/11/16 00:31:53;;;;;;;24.83;6.30;;;;;;;12.20;100.00;98297.44;5087418;28;20474;-82
2022/11/16 00:34:21;;;;;;;14.73;4.57;;;;;;;12.05;100.00;98299.50;5088454;28;20052;-82
2022/11/16 00:36:49;;;;;;;11.45;2.92;;;;;;;12.20;100.00;98310.53;5072364;28;20579;-82
2022/11/16 00:39:18;;;;;;;13.70;3.13;;;;;;;12.18;100.00;98317.69;5083128;28;20068;-82
2022/11/16 00:41:45;;;;;;;15.45;3.50;;;;;;;12.08;100.00;98320.25;5065649;28;20048;-82
2022/11/16 00:44:13;;;;;;;17.20;3.78;;;;;;;12.27;100.00;98318.72;5086511;28;20057;-81
2022/11/16 00:46:39;;;;;;;16.65;4.15;;;;;;;12.20;100.00;98318.41;5064731;28;20040;-82
2022/11/16 00:49:07;;;;;;;20.35;4.35;;;;;;;12.33;100.00;98307.72;5067923;28;20039;-82
2022/11/16 00:51:35;;;;;;;13.85;3.70;;;;;;;12.46;100.00;98312.78;5066742;28;20048;-82
2022/11/16 00:54:04;;;;;;;16.90;4.25;;;;;;;12.49;100.00;98313.34;5085906;28;20412;-81
2022/11/16 00:56:31;;;;;;;16.25;5.25;;;;;;;12.32;100.00;98291.16;5084153;28;20044;-82
2022/11/16 00:58:57;;;;;;;19.52;4.25;;;;;;;12.39;100.00;98295.88;5086587;28;20045;-81
2022/11/16 01:01:24;;;;;;;16.65;3.35;;;;;;;12.44;100.00;98306.81;5083291;28;20051;-82
2022/11/16 01:03:51;;;;;;;20.77;4.45;;;;;;;12.18;100.00;98294.06;5100089;28;20080;-82
2022/11/16 01:06:19;;;;;;;13.55;3.38;;;;;;;12.22;100.00;98292.06;5072703;28;20105;-82
2022/11/16 01:08:46;;;;;;;19.58;4.95;;;;;;;12.37;100.00;98288.13;5074127;28;20127;-82
2022/11/16 01:14:03;;;;;;;11.30;2.47;;;;;;;12.37;100.00;98282.06;5083742;28;20442;-82
2022/11/16 01:16:30;;;;;;;12.63;3.25;;;;;;;12.41;100.00;98281.69;5083408;28;20044;-82
2022/11/16 01:18:56;;;;;;;13.45;3.53;;;;;;;12.13;100.00;98267.41;5069127;28;20045;-82
2022/11/16 01:21:23;;;;;;;13.68;2.75;;;;;;;12.13;100.00;98289.22;5084529;28;20102;-81
2022/11/16 01:23:51;;;;;;;14.93;2.80;;;;;;;12.17;100.00;98291.59;5082449;28;20045;-82
2022/11/16 01:26:18;;;;;;;13.88;2.60;;;;;;;12.14;100.00;98263.81;5085382;28;20040;-82
2022/11/16 01:28:45;;;;;;;9.85;2.72;;;;;;;12.21;100.00;98272.84;5071143;28;20466;-82
2022/11/16 01:31:11;;;;;;;10.43;2.33;;;;;;;12.23;100.00;98280.59;5066483;28;20040;-82
2022/11/16 01:33:39;;;;;;;18.33;4.18;;;;;;;12.12;100.00;98277.06;5068232;28;20503;-82
2022/11/16 01:36:13;;;;;;;14.98;4.35;;;;;;;12.08;100.00;98267.78;5064387;28;20101;-81
2022/11/16 01:38:45;;;;;;;22.30;5.53;;;;;;;12.11;100.00;98264.94;5085061;28;20063;-82
2022/11/16 01:41:14;;;;;;;28.92;5.90;;;;;;;12.06;100.00;98247.91;5086665;28;20052;-82
2022/11/16 01:43:57;;;;;;;25.27;5.78;;;;;;;12.05;100.00;98233.94;5082757;28;20104;-82
2022/11/16 01:46:24;;;;;;;25.48;6.90;;;;;;;12.13;100.00;98241.19;5067418;28;20786;-82
2022/11/16 01:49:19;;;;;;;41.47;6.25;;;;;;;12.11;100.00;98250.94;5081277;28;20040;-82
2022/11/16 01:51:51;;;;;;;22.40;4.72;;;;;;;11.96;100.00;98267.00;5078043;28;20045;-82
2022/11/16 01:54:18;;;;;;;30.95;6.75;;;;;;;12.06;100.00;98277.59;5063146;28;20446;-82
2022/11/16 01:56:48;;;;;;;21.75;4.65;;;;;;;12.07;100.00;98296.75;5064616;28;20420;-82
2022/11/16 01:59:16;;;;;;;21.73;5.07;;;;;;;11.92;100.00;98286.59;5068714;28;20044;-82
2022/11/16 02:01:43;;;;;;;17.23;3.45;;;;;;;12.05;100.00;98296.88;5098530;28;20374;-82
2022/11/16 02:04:11;;;;;;;12.73;3.03;;;;;;;12.22;100.00;98300.75;5082708;28;20044;-82
2022/11/16 02:07:07;;;;;;;15.18;3.92;;;;;;;12.21;100.00;98290.38;5067110;28;20048;-82
2022/11/16 02:10:01;;;;;;;15.98;3.60;;;;;;;12.07;100.00;98297.59;5067639;28;20040;-82
2022/11/16 02:12:47;;;;;;;18.58;3.78;;;;;;;12.03;100.00;98314.53;5074275;28;20056;-82
2022/11/16 02:15:36;;;;;;;14.80;3.88;;;;;;;11.86;100.00;98301.94;5083150;28;20048;-82
2022/11/16 02:18:13;;;;;;;19.00;3.70;;;;;;;11.57;100.00;98292.03;5054729;28;20051;-82
2022/11/16 02:21:01;;;;;;;20.40;3.83;;;;;;;11.89;100.00;98323.50;5082818;28;20044;-82
2022/11/16 02:23:59;;;;;;;21.15;3.55;;;;;;;11.67;100.00;98328.81;5080020;28;20074;-82
2022/11/16 02:26:32;;;;;;;17.73;3.38;;;;;;;11.61;100.00;98335.38;5083568;28;20117;-82
2022/11/16 02:29:17;;;;;;;13.93;3.33;;;;;;;11.59;100.00;98340.75;5062826;28;20041;-82
2022/11/16 02:31:59;;;;;;;13.95;3.15;;;;;;;11.55;100.00;98323.63;5072836;28;20044;-82
2022/11/16 02:34:31;;;;;;;12.18;2.47;;;;;;;11.43;100.00;98326.38;5081817;28;20048;-82
2022/11/16 02:37:00;;;;;;;11.33;2.07;;;;;;;11.44;100.00;98343.75;5081463;28;20105;-82
2022/11/16 02:39:31;;;;;;;9.90;2.63;;;;;;;11.64;100.00;98334.31;5069992;28;20060;-82
2022/11/16 02:42:00;;;;;;;8.93;2.13;;;;;;;11.70;100.00;98337.25;5065884;28;20048;-81
2022/11/16 02:44:35;;;;;;;12.02;3.30;;;;;;;11.45;100.00;98337.56;5079097;28;20060;-82
2022/11/16 02:47:07;;;;;;;10.85;2.80;;;;;;;11.44;100.00;98328.88;5082688;28;20106;-82
2022/11/16 02:49:39;;;;;;;11.35;2.70;;;;;;;11.63;100.00;98335.28;5081462;28;20052;-82
2022/11/16 02:52:09;;;;;;;11.60;3.10;;;;;;;11.37;100.00;98317.22;5082990;28;20101;-82
2022/11/16 02:54:35;;;;;;;14.93;3.35;;;;;;;11.37;100.00;98327.72;5095742;28;20055;-82
2022/11/16 02:57:02;;;;;;;13.07;2.72;;;;;;;11.26;100.00;98339.03;5100977;28;20110;-82
2022/11/16 02:59:37;;;;;;;10.98;3.10;;;;;;;11.21;100.00;98344.63;5069723;28;20040;-82
2022/11/16 03:02:26;;;;;;;12.02;2.75;;;;;;;11.11;100.00;98351.53;5062135;28;20056;-82
2022/11/16 03:05:32;;;;;;;19.60;3.60;;;;;;;11.27;100.00;98338.06;5080313;28;20098;-82
2022/11/16 03:08:17;;;;;;;16.80;3.55;;;;;;;10.93;100.00;98350.34;5086709;28;20109;-82
2022/11/16 03:13:36;;;;;;;11.05;2.60;;;;;;;10.70;100.00;98345.09;5086233;28;20044;-82
2022/11/16 03:16:10;;;;;;;8.70;1.80;;;;;;;10.54;100.00;98337.56;5072048;28;20444;-82
2022/11/16 03:18:39;;;;;;;12.27;2.40;;;;;;;10.60;100.00;98357.19;5089910;28;20093;-82
2022/11/16 03:21:26;;;;;;;12.40;2.55;;;;;;;10.48;100.00;98381.66;5086491;28;20110;-82
2022/11/16 03:23:53;;;;;;;17.40;3.53;;;;;;;10.59;100.00;98373.88;5082955;28;20059;-82
2022/11/16 03:26:25;;;;;;;16.63;2.95;;;;;;;10.44;100.00;98381.06;5092324;28;20397;-82
2022/11/16 03:29:00;;;;;;;8.75;2.22;;;;;;;10.52;100.00;98377.91;5085674;28;20439;-83
2022/11/16 03:31:31;;;;;;;16.77;3.03;;;;;;;10.52;100.00;98376.09;5090308;28;20059;-82
2022/11/16 03:34:02;;;;;;;12.38;2.63;;;;;;;10.58;100.00;98387.88;5082935;28;20052;-82
2022/11/16 03:36:39;;;;;;;16.38;3.38;;;;;;;10.75;100.00;98382.22;5099873;28;20114;-82
2022/11/16 03:39:11;;;;;;;12.43;3.00;;;;;;;10.80;100.00;98384.47;5087105;28;20048;-82
2022/11/16 03:41:41;;;;;;;12.65;2.88;;;;;;;10.85;100.00;98392.81;5069631;28;20044;-81
2022/11/16 03:44:12;;;;;;;25.25;4.30;;;;;;;10.60;100.00;98407.75;5066908;28;20101;-82
2022/11/16 03:46:44;;;;;;;17.25;3.88;;;;;;;10.36;100.00;98405.19;5066751;28;20101;-82
2022/11/16 03:49:11;;;;;;;21.52;3.85;;;;;;;10.41;100.00;98415.28;5089980;28;20048;-81
2022/11/16 03:51:37;;;;;;;15.68;3.55;;;;;;;10.29;100.00;98377.78;5086949;28;20051;-82
2022/11/16 03:54:04;;;;;;;15.30;3.63;;;;;;;10.43;100.00;98397.72;5073679;28;20044;-82
2022/11/16 03:56:31;;;;;;;14.35;3.15;;;;;;;10.63;100.00;98407.53;5102121;28;20113;-82
2022/11/16 03:58:58;;;;;;;18.02;4.32;;;;;;;10.59;100.00;98415.72;5081788;28;20554;-82
2022/11/16 04:01:25;;;;;;;14.43;2.95;;;;;;;10.57;100.00;98426.31;5084813;28;20056;-82
2022/11/16 04:03:51;;;;;;;18.73;3.40;;;;;;;10.25;100.00;98411.19;5085368;28;20062;-82
2022/11/16 04:25:59;;;;;;;18.80;3.75;;;;;;;10.49;100.00;98426.03;5084113;28;20048;-82
2022/11/16 04:28:32;;;;;;;13.10;2.88;;;;;;;10.47;100.00;98427.09;5063273;28;20052;-82
2022/11/16 04:39:29;;;;;;;18.65;3.83;;;;;;;10.50;100.00;98416.38;5087677;28;20051;-82
2022/11/16 04:42:14;;;;;;;22.20;3.88;;;;;;;10.42;100.00;98433.50;5089868;28;20040;-82
2022/11/16 04:47:25;;;;;;;19.23;3.80;;;;;;;10.21;100.00;98441.09;5086037;28;20052;-81
2022/11/16 04:49:52;;;;;;;13.48;2.65;;;;;;;10.10;100.00;98407.06;5088875;28;20175;-82
2022/11/16 04:52:19;;;;;;;20.10;3.97;;;;;;;10.25;100.00;98442.56;5070102;28;20044;-81
2022/11/16 04:54:45;;;;;;;13.10;4.18;;;;;;;9.77;100.00;98408.53;5089651;28;20052;-82
2022/11/16 04:57:12;;;;;;;15.82;2.70;;;;;;;10.18;100.00;98446.56;5084449;28;20081;-82
2022/11/16 04:59:39;;;;;;;17.75;3.13;;;;;;;10.23;100.00;98444.47;5083616;28;20487;-82
2022/11/16 05:02:09;;;;;;;10.52;3.10;;;;;;;10.09;100.00;98431.53;5069695;28;20055;-82
2022/11/16 05:04:37;;;;;;;17.58;3.40;;;;;;;9.78;100.00;98425.06;5083376;28;20055;-81
2022/11/16 05:07:09;;;;;;;15.55;3.45;;;;;;;10.12;100.00;98443.56;5088763;28;20048;-82
2022/11/16 05:09:41;;;;;;;17.02;3.88;;;;;;;10.25;100.00;98439.94;5080661;28;20049;-82
2022/11/16 05:12:10;;;;;;;14.85;3.10;;;;;;;10.05;100.00;98448.38;5065746;28;20666;-82
2022/11/16 05:14:37;;;;;;;17.15;3.40;;;;;;;9.92;100.00;98434.53;5066556;28;20071;-82
2022/11/16 05:17:04;;;;;;;13.80;2.70;;;;;;;10.09;100.00;98462.91;5069067;28;20048;-82
2022/11/16 05:22:16;;;;;;;22.08;3.13;;;;;;;9.96;100.00;98460.34;5085767;28;20134;-82
2022/11/16 05:24:43;;;;;;;16.83;3.25;;;;;;;9.96;100.00;98449.06;5067481;28;20101;-82
2022/11/16 05:27:12;;;;;;;18.55;3.35;;;;;;;10.07;100.00;98488.31;5086439;28;20101;-82
2022/11/16 05:29:39;;;;;;;11.43;2.83;;;;;;;9.99;100.00;98483.66;5069896;28;20054;-82
2022/11/16 05:32:07;;;;;;;14.40;3.08;;;;;;;9.91;100.00;98474.69;5072714;28;20056;-82
2022/11/16 05:34:34;;;;;;;15.35;4.15;;;;;;;10.04;100.00;98497.25;5079656;28;20044;-82
2022/11/16 05:37:01;;;;;;;12.73;2.72;;;;;;;10.12;100.00;98481.00;5084278;28;20851;-82
2022/11/16 05:39:27;;;;;;;17.73;2.90;;;;;;;10.06;100.00;98507.59;5085266;28;20101;-82
2022/11/16 05:41:55;;;;;;;15.98;2.90;;;;;;;9.86;100.00;98477.59;5085756;28;20067;-82
2022/11/16 05:44:23;;;;;;;14.52;2.53;;;;;;;10.05;100.00;98505.91;5067198;28;20051;-81
2022/11/16 05:46:50;;;;;;;10.38;2.30;;;;;;;9.89;100.00;98500.94;5069348;28;20048;-81
2022/11/16 05:49:17;;;;;;;9.38;2.78;;;;;;;9.98;100.00;98508.09;5065623;28;20048;-81
2022/11/16 05:51:45;;;;;;;13.95;2.72;;;;;;;10.15;100.00;98491.25;5065813;28;20196;-81
2022/11/16 05:54:15;;;;;;;16.15;2.90;;;;;;;10.08;100.00;98487.38;5090542;28;20071;-81
2022/11/16 05:56:42;;;;;;;9.60;3.05;;;;;;;10.22;100.00;98502.94;5083644;28;20496;-81
2022/11/16 05:59:12;;;;;;;13.98;2.58;;;;;;;10.34;100.00;98511.72;5088011;28;20074;-82
2022/11/16 06:01:42;;;;;;;14.68;2.55;;;;;;;10.27;100.00;98500.00;5087144;28;20410;-81
2022/11/16 06:04:09;;;;;;;11.75;2.90;;;;;;;10.20;100.00;98498.75;5085026;28;20048;-82
2022/11/16 06:06:36;;;;;;;17.00;3.38;;;;;;;10.17;100.00;98493.75;5081704;28;20040;-82
2022/11/16 06:09:03;;;;;;;13.63;2.58;;;;;;;10.27;100.00;98500.81;5068335;28;20105;-81
2022/11/16 06:11:31;;;;;;;13.70;2.42;;;;;;;10.17;100.00;98476.28;5082452;28;20477;-82
2022/11/16 06:14:01;;;;;;;10.95;2.97;;;;;;;10.31;100.00;98498.84;5069119;28;20055;-81
2022/11/16 06:16:28;;;;;;;13.75;3.30;;;;;;;10.27;100.00;98476.44;5087184;28;20124;-82
2022/11/16 06:18:56;;;;;;;8.40;2.47;;;;;;;10.35;100.00;98483.78;5082873;28;20044;-82
2022/11/16 06:21:22;;;;;;;13.98;3.38;;;;;;;10.17;100.00;98457.97;5073172;28;20048;-82
2022/11/16 06:23:49;;;;;;;10.95;2.63;;;;;;;10.23;100.00;98481.06;5076705;28;20060;-82
2022/11/16 06:26:16;;;;;;;9.85;2.60;;;;;;;10.19;100.00;98497.91;5088411;28;20048;-84
2022/11/16 06:28:43;;;;;;;8.95;2.67;;;;;;;9.95;100.00;98470.91;5097847;28;20043;-82
2022/11/16 06:31:10;;;;;;;12.15;2.70;;;;;;;10.01;100.00;98473.09;5087340;28;20369;-82
2022/11/16 06:33:37;;;;;;;12.30;2.50;;;;;;;10.07;100.00;98467.41;5063746;28;20447;-81
2022/11/16 06:36:04;;;;;;;9.35;2.40;;;;;;;10.08;100.00;98469.09;5090062;28;20551;-82
2022/11/16 06:38:30;;;;;;;14.05;4.15;;;;;;;10.16;100.00;98489.44;5090405;28;20055;-82
2022/11/16 06:40:58;;;;;;;15.80;2.92;;;;;;;10.19;100.00;98486.63;5087363;28;20052;-82
2022/11/16 06:43:25;;;;;;;12.18;3.20;;;;;;;10.16;100.00;98497.28;5083835;28;20044;-82
2022/11/16 06:45:54;;;;;;;10.88;2.53;;;;;;;10.06;100.00;98486.69;5081749;28;20052;-82
2022/11/16 06:48:21;;;;;;;10.02;2.55;;;;;;;10.11;100.00;98481.94;5072136;28;20055;-82
2022/11/16 06:50:49;;;;;;;13.10;2.67;;;;;;;10.26;100.00;98498.31;5067683;28;20048;-83
2022/11/16 06:53:17;;;;;;;12.45;2.67;;;;;;;10.13;100.00;98485.28;5099674;28;20119;-81
2022/11/16 06:55:44;;;;;;;10.50;2.13;;;;;;;10.15;100.00;98486.00;5070479;28;20500;-81
2022/11/16 06:58:10;;;;;;;9.40;2.35;;;;;;;10.14;100.00;98471.25;5071913;28;20109;-81
2022/11/16 07:00:37;;;;;;;9.20;2.53;;;;;;;10.00;100.00;98460.94;5085946;28;20048;-81
2022/11/16 07:03:04;;;;;;;15.38;2.70;;;;;;;10.04;100.00;98471.09;5073038;28;20078;-81
2022/11/16 07:05:32;;;;;;;8.55;1.80;;;;;;;10.19;100.00;98497.09;5090188;28;20040;-82
2022/11/16 07:07:58;;;;;;;11.93;2.85;;;;;;;9.96;100.00;98469.97;5091490;28;20112;-81
2022/11/16 07:10:25;;;;;;;8.63;1.98;;;;;;;10.01;100.00;98479.16;5073269;28;20506;-81
2022/11/16 07:12:52;;;;;;;11.82;2.10;;;;;;;10.17;100.00;98514.66;5081870;28;20052;-82
2022/11/16 07:15:19;;;;;;;15.52;2.70;;;;;;;10.09;100.00;98520.41;5098391;28;20658;-83
2022/11/16 07:17:46;;;;;;;12.65;2.58;;;;;;;10.13;100.00;98515.81;5071069;28;20048;-81
2022/11/16 07:20:13;;;;;;;7.43;2.20;;;;;;;9.80;100.00;98471.03;5071052;28;20040;-81
2022/11/16 07:22:40;;;;;;;9.98;2.42;;;;;;;10.02;100.00;98493.03;5089950;28;20048;-82
2022/11/16 07:25:07;;;;;;;14.57;2.72;;;;;;;10.18;100.00;98511.94;5088475;28;20044;-82
2022/11/16 07:27:34;;;;;;;9.48;2.63;;;;;;;9.91;100.00;98470.28;5088376;28;20040;-81
2022/11/16 07:30:01;;;;;;;6.25;1.80;;;;;;;10.17;100.00;98494.56;5071790;28;20113;-82
2022/11/16 07:32:32;;;;;;;9.82;2.30;;;;;;;10.22;100.00;98517.78;5071857;28;20069;-83
2022/11/16 07:35:05;;;;;;;7.97;1.92;;;;;;;10.12;100.00;98494.06;5076556;28;20459;-83
2022/11/16 07:37:32;;;;;;;7.38;2.15;;;;;;;10.07;100.00;98485.72;5081611;28;20055;-83
2022/11/16 07:39:59;;;;;;;8.63;2.47;;;;;;;9.99;100.00;98475.81;5090554;28;20420;-83
2022/11/16 07:42:25;;;;;;;12.52;2.45;;;;;;;10.13;100.00;98498.38;5071881;28;20059;-84
2022/11/16 07:44:52;;;;;;;11.55;2.83;;;;;;;9.94;100.00;98487.53;5065029;28;20053;-81
2022/11/16 07:47:19;;;;;;;15.20;2.58;;;;;;;9.88;100.00;98475.75;5082798;28;20047;-82
2022/11/16 07:49:47;;;;;;;14.25;2.45;;;;;;;10.00;100.00;98487.09;5088507;28;20044;-82
2022/11/16 07:52:14;;;;;;;6.80;1.77;;;;;;;10.21;100.00;98518.72;5073117;28;20061;-82
2022/11/16 07:54:41;;;;;;;9.35;2.65;;;;;;;9.78;100.00;98462.47;5077226;28;20604;-82
2022/11/16 07:57:08;;;;;;;8.00;2.00;;;;;;;10.21;100.00;98509.09;5085338;28;20044;-82
2022/11/16 07:59:34;;;;;;;13.48;3.28;;;;;;;9.85;100.00;98466.31;5091484;28;20048;-80
2022/11/16 08:02:01;;;;;;;13.20;2.65;;;;;;;9.84;100.00;98472.53;5094379;28;20432;-82
2022/11/16 08:04:28;;;;;;;10.98;2.30;;;;;;;9.97;100.00;98477.69;5076823;28;20043;-82
2022/11/16 08:06:55;;;;;;;13.85;3.22;;;;;;;9.80;100.00;98457.97;5091947;28;20059;-82
2022/11/16 08:09:22;;;;;;;12.30;3.00;;;;;;;9.85;100.00;98482.00;5076881;28;20055;-81
2022/11/16 08:11:50;;;;;;;12.70;2.97;;;;;;;9.68;100.00;98453.59;5076220;28;20044;-79
2022/11/16 08:14:18;;;;;;;11.25;2.70;;;;;;;9.76;100.00;98455.72;5093928;28;20044;-82
2022/11/16 08:16:44;;;;;;;11.13;3.08;;;;;;;9.81;100.00;98467.50;5075784;28;20491;-81
2022/11/16 08:19:11;;;;;;;8.07;2.10;;;;;;;9.87;100.00;98474.06;5076663;28;20043;-81
2022/11/16 08:21:38;;;;;;;13.38;3.50;;;;;;;9.80;100.00;98467.59;5095014;28;20054;-81
2022/11/16 08:24:05;;;;;;;12.20;3.00;;;;;;;9.73;100.00;98450.69;5094309;28;20052;-81
2022/11/16 08:26:32;;;;;;;11.73;3.28;;;;;;;9.94;100.00;98493.59;5075749;28;20052;-81
2022/11/16 08:28:58;;;;;;;12.90;4.22;;;;;;;9.62;100.00;98444.44;5076509;28;20094;-81
2022/11/16 08:31:27;;;;;;;14.50;3.15;;;;;;;9.76;100.00;98474.81;5094587;28;20044;-81
2022/11/16 08:33:55;;;;;;;12.38;3.08;;;;;;;9.94;100.00;98503.22;5076356;28;20040;-81
2022/11/16 08:36:22;;;;;;;14.93;3.53;;;;;;;9.64;100.00;98454.78;5075717;28;20134;-81
2022/11/16 08:38:50;;;;;;;13.95;3.03;;;;;;;9.79;100.00;98481.59;5076543;28;20048;-81
2022/11/16 08:41:18;;;;;;;19.88;3.17;;;;;;;9.98;100.00;98508.09;5076495;28;20047;-81
2022/11/16 08:43:46;;;;;;;16.15;3.08;;;;;;;9.80;100.00;98480.66;5076198;28;20134;-81
2022/11/16 08:46:13;;;;;;;12.02;3.00;;;;;;;9.98;100.00;98496.81;5075422;28;20048;-82
2022/11/16 08:48:40;;;;;;;12.23;2.60;;;;;;;9.86;100.00;98481.09;5094565;28;20393;-82
2022/11/16 08:51:12;;;;;;;14.70;3.35;;;;;;;10.02;100.00;98509.59;5093475;28;20044;-81
2022/11/16 08:53:46;;;;;;;11.30;2.60;;;;;;;10.08;100.00;98513.53;5065262;28;20052;-80
2022/11/16 08:56:16;;;;;;;14.93;2.78;;;;;;;9.68;100.00;98453.59;5075587;28;20052;-82
2022/11/16 08:58:45;;;;;;;11.73;3.30;;;;;;;9.99;100.00;98514.19;5080579;28;20058;-81
2022/11/16 09:01:17;;;;;;;11.65;3.03;;;;;;;9.54;100.00;98480.69;5076640;28;20487;-82
2022/11/16 09:03:45;;;;;;;11.63;2.60;;;;;;;9.59;100.00;98483.00;5086216;28;20401;-81
2022/11/16 09:06:13;;;;;;;9.70;3.00;;;;;;;9.77;100.00;98483.50;5093879;28;20044;-81
2022/11/16 09:08:42;;;;;;;9.85;2.38;;;;;;;10.08;100.00;98532.66;5075637;28;20493;-81
2022/11/16 09:11:12;;;;;;;12.10;3.22;;;;;;;10.08;100.00;98524.00;5093649;28;20047;-81
2022/11/16 09:13:39;;;;;;;12.18;2.70;;;;;;;9.96;100.00;98501.34;5072522;28;20409;-82
2022/11/16 09:16:06;;;;;;;11.60;2.58;;;;;;;9.94;100.00;98498.81;5100491;28;20056;-81
2022/11/16 09:18:33;;;;;;;9.32;2.78;;;;;;;10.23;100.00;98522.06;5086561;28;20454;-81
2022/11/16 09:21:01;;;;;;;13.85;3.08;;;;;;;9.93;100.00;98475.41;5076068;28;20459;-80
2022/11/16 09:23:27;;;;;;;10.35;2.45;;;;;;;10.15;100.00;98519.19;5074734;28;20063;-80
2022/11/16 09:25:54;;;;;;;11.60;2.55;;;;;;;9.87;100.00;98487.13;5074571;28;20047;-82
2022/11/16 09:28:21;;;;;;;12.13;2.83;;;;;;;9.89;100.00;98500.94;5074661;28;20044;-81
2022/11/16 09:30:50;;;;;;;8.82;2.60;;;;;;;10.22;100.00;98536.94;5075483;28;20044;-81
2022/11/16 09:33:17;;;;;;;11.32;2.60;;;;;;;10.06;100.00;98525.88;5093289;28;20354;-81
2022/11/16 09:35:44;;;;;;;6.95;2.20;;;;;;;9.79;100.00;98482.47;5092385;28;20052;-82
2022/11/16 09:38:11;;;;;;;16.35;2.78;;;;;;;9.98;100.00;98492.44;5093067;28;20058;-81
2022/11/16 09:40:46;;;;;;;8.40;2.53;;;;;;;10.14;100.00;98518.31;5092914;28;20076;-82
2022/11/16 09:43:16;;;;;;;6.63;1.90;;;;;;;10.39;100.00;98546.22;5074646;28;20056;-81
2022/11/16 09:46:02;;;;;;;10.68;2.60;;;;;;;10.12;100.00;98511.53;5074339;28;20469;-81
2022/11/16 09:48:34;;;;;;;11.90;2.50;;;;;;;9.92;100.00;98471.97;5095363;28;20043;-82
2022/11/16 09:51:07;;;;;;;8.63;2.22;;;;;;;10.49;100.00;98540.31;5093004;28;20172;-82
2022/11/16 09:53:42;;;;;;;8.32;2.15;;;;;;;10.49;100.00;98540.31;5079756;28;20063;-81
2022/11/16 09:56:12;;;;;;;8.10;2.30;;;;;;;10.27;100.00;98515.69;5074383;28;20405;-81
2022/11/16 09:59:25;;;;;;;9.50;2.00;;;;;;;10.42;100.00;98519.00;5093223;28;20055;-81
2022/11/16 10:02:29;;;;;;;9.13;2.00;;;;;;;10.60;100.00;98540.38;5074925;28;20474;-81
2022/11/16 10:05:09;;;;;;;11.02;2.00;;;;;;;10.68;100.00;98550.28;5075044;28;20469;-82
2022/11/16 10:07:42;;;;;;;7.25;2.03;;;;;;;10.67;100.00;98559.09;5082690;28;20040;-81
2022/11/16 10:10:14;;;;;;;14.43;2.60;;;;;;;10.64;100.00;98553.13;5070608;28;20086;-82
2022/11/16 10:13:05;;;;;;;8.30;2.13;;;;;;;10.71;100.00;98571.00;5078996;28;20044;-81
2022/11/16 10:15:59;;;;;;;10.10;2.03;;;;;;;10.70;100.00;98578.03;5091631;28;20105;-82
2022/11/16 10:18:45;;;;;;;8.85;2.35;;;;;;;10.41;100.00;98530.41;5092255;28;20047;-82
2022/11/16 10:21:49;;;;;;;8.57;2.40;;;;;;;10.88;100.00;98581.06;5068739;28;20047;-82
2022/11/16 10:24:15;;;;;;;;;;;;;;;10.98;100.00;98576.00;5074468;28;20386;-81
2022/11/16 10:27:08;;;;;;;7.53;1.80;;;;;;;10.93;100.00;98583.38;5102315;28;19927;-81
2022/11/16 10:29:50;;;;;;;5.82;1.80;;;;;;;11.02;100.00;98575.66;5092993;28;20484;-81
2022/11/16 10:32:46;;;;;;;6.28;1.77;;;;;;;10.96;100.00;98544.69;5074593;28;20401;-82
2022/11/16 10:35:23;;;;;;;9.98;2.05;;;;;;;10.80;100.00;98531.91;5063708;28;20477;-82
2022/11/16 10:37:50;;;;;;;5.65;1.80;;;;;;;11.16;100.00;98571.19;5074731;28;20436;-81
2022/11/16 10:40:22;;;;;;;6.47;2.05;;;;;;;11.23;100.00;98563.72;5092698;28;20055;-81
2022/11/16 10:43:03;;;;;;;12.27;3.17;;;;;;;11.15;100.00;98551.16;5091621;28;20048;-82
2022/11/16 10:45:44;;;;;;;9.32;2.00;;;;;;;11.25;100.00;98567.88;5091258;28;20097;-82
2022/11/16 10:48:22;;;;;;;12.23;2.70;;;;;;;11.00;100.00;98532.22;5092249;28;20040;-82
2022/11/16 10:50:51;;;;;;;9.98;2.30;;;;;;;10.99;100.00;98517.44;5074394;28;20070;-81
2022/11/16 10:53:27;;;;;;;10.30;2.53;;;;;;;11.36;100.00;98556.59;5074283;28;20535;-83
2022/11/16 10:56:22;;;;;;;6.93;1.95;;;;;;;11.16;100.00;98535.34;5073598;28;20048;-82
2022/11/16 10:59:03;;;;;;;10.00;1.92;;;;;;;11.42;100.00;98568.38;5063406;28;20052;-82
2022/11/16 11:01:42;;;;;;;8.85;1.90;;;;;;;11.29;100.00;98542.28;5091917;28;20132;-82
2022/11/16 11:04:21;;;;;;;9.25;2.15;;;;;;;11.55;100.00;98574.38;5073865;28;20139;-83
2022/11/16 11:06:54;;;;;;;9.70;3.00;;;;;;;11.34;100.00;98561.94;5091215;28;20048;-82
2022/11/16 11:09:31;;;;;;;8.13;2.40;;;;;;;11.18;100.00;98527.38;5072602;28;20056;-81
2022/11/16 11:15:12;;;;;;;10.98;2.35;;;;;;;11.52;100.00;98572.81;5092010;28;20397;-82
2022/11/16 11:17:45;;;;;;;15.02;2.65;;;;;;;11.48;100.00;98557.44;5091310;28;20056;-80
2022/11/16 11:20:15;;;;;;;13.98;2.70;;;;;;;11.58;100.00;98564.50;5074601;28;20615;-81
2022/11/16 11:22:47;;;;;;;11.65;2.90;;;;;;;11.40;100.00;98545.78;5073140;28;20040;-81
2022/11/16 11:25:31;;;;;;;9.70;2.53;;;;;;;11.70;100.00;98574.97;5073466;28;20048;-80
2022/11/16 11:28:26;;;;;;;16.08;4.47;;;;;;;11.32;100.00;98569.09;5082298;28;20495;-81
2022/11/16 11:30:56;;;;;;;12.75;3.15;;;;;;;11.29;100.00;98574.53;5093139;28;20052;-81
2022/11/16 11:33:25;;;;;;;12.02;3.25;;;;;;;11.17;100.00;98534.41;5084632;28;20044;-81
2022/11/16 11:36:21;;;;;;;13.50;2.78;;;;;;;11.25;100.00;98518.09;5095135;28;20439;-82
2022/11/16 11:39:04;;;;;;;13.25;2.92;;;;;;;11.57;100.00;98551.50;5077763;28;20044;-82
2022/11/16 11:41:32;;;;;;;;;;;;;;;11.84;100.00;98561.63;5096333;28;20158;-82
2022/11/16 11:44:15;;;;;;;7.95;2.22;;;;;;;11.74;100.00;98539.72;5095301;28;19924;-81
2022/11/16 11:47:00;;;;;;;16.77;3.67;;;;;;;11.61;100.00;98542.44;5094645;28;20048;-81
2022/11/16 11:49:53;;;;;;;12.63;2.97;;;;;;;11.83;100.00;98569.63;5082792;28;20044;-82
2022/11/16 11:52:32;;;;;;;9.73;2.40;;;;;;;11.31;100.00;98519.41;5077031;28;20098;-81
2022/11/16 11:55:01;;;;;;;15.43;3.15;;;;;;;11.51;100.00;98523.13;5109109;28;20048;-81
2022/11/16 11:57:32;;;;;;;13.93;3.58;;;;;;;11.58;100.00;98548.78;5095537;28;20113;-82
2022/11/16 12:00:08;;;;;;;10.57;2.78;;;;;;;11.64;100.00;98567.59;5062528;28;20067;-81
2022/11/16 12:03:20;;;;;;;15.32;3.83;;;;;;;11.67;100.00;98577.81;5077481;28;20062;-81
2022/11/16 12:06:13;;;;;;;9.45;2.05;;;;;;;11.99;100.00;98529.97;5073019;28;20044;-81
2022/11/16 12:09:07;;;;;;;12.50;2.50;;;;;;;12.13;100.00;98577.78;5094629;28;20048;-82
2022/11/16 12:12:00;;;;;;;11.82;2.92;;;;;;;11.75;100.00;98585.94;5085765;28;20048;-82
2022/11/16 12:14:48;;;;;;;15.55;3.05;;;;;;;12.03;100.00;98571.56;5084004;28;20048;-80
2022/11/16 12:17:35;;;;;;;13.27;3.00;;;;;;;11.62;100.00;98538.88;5077088;28;20048;-82
2022/11/16 12:20:24;;;;;;;13.07;2.30;;;;;;;12.17;100.00;98586.25;5076751;28;20113;-82
2022/11/16 12:23:11;;;;;;;13.65;3.00;;;;;;;11.95;100.00;98577.44;5062456;28;20518;-81
2022/11/16 12:26:06;;;;;;;13.60;2.50;;;;;;;12.15;100.00;98580.28;5075735;28;20055;-82
2022/11/16 12:28:51;;;;;;;13.68;2.88;;;;;;;11.79;100.00;98587.38;5094562;28;20044;-82